Aviation Digital Data Service (ADDS)

Output produced by METARs form (2320 UTC 18 August 2019)
found at http://www.aviationweather.gov/metar/data/
 
Forecast for: NLWF (FUTUNA ISL/MAOPO, FJ)
Text: TAF NLWF 182300Z 1900/1924 03005KT 9999 FEW020
Forecast period: 0000 UTC 19 August 2019 to 0000 UTC 20 August 2019
Forecast type: FROM: standard forecast or significant change
Winds: from the NNE (30 degrees) at 6 MPH (5 knots; 2.6 m/s)
Visibility: 6 or more miles 10+ km)
Ceiling: at least 12,000 feet AGL
Clouds: few clouds at 2000 feet AGL
Weather: no significant weather forecast for this period